Flight Track Log - Related Links

Times and Time Zones

All times are in EDT time to prevent confusion due to time zone crossing. See the RPA4891 flight status page for this flight to view local times or setup timezone preferences in your user account.

Time Position Orientation Groundspeed Altitude Reporting Facility
EDT Latitude Longitude Course Direction KTS MPH feet Rate Location/Type
Mon 11:11:08 AM 35.8967 -78.7767 39° Northeast 171 197 1,100  Level Washington Center
Mon 11:12:09 AM 35.9414 -78.7475 28° Northeast 187 215 3,200 2,182 Climbing Washington Center
Mon 11:13:09 AM 35.9922 -78.7111 30° Northeast 202 232 5,500 2,115 Climbing Washington Center
Mon 11:14:28 AM 36.0500 -78.6594 36° Northeast 212 244 8,100 1,929 Climbing Washington Center
Mon 11:15:29 AM 36.0972 -78.6125 39° Northeast 217 250 10,000 1,765 Climbing Washington Center
Mon 11:16:00 AM 36.2777 -78.4057 39° Northeast  Level FlightAware Approximate
Mon 11:16:27 AM 36.1528 -78.5581 38° Northeast 222 255 11,600  Level Washington Center
Mon 11:17:27 AM 36.2019 -78.5108 38° Northeast 238 274 13,100 1,190 Climbing Washington Center
Mon 11:18:28 AM 36.2639 -78.4489 39° Northeast 248 285 14,000 443 Climbing Washington Center
Mon 11:19:29 AM 36.3236 -78.3917 38° Northeast 279 321 14,000 403 Level Washington Center
Mon 11:20:27 AM 36.4006 -78.3169 38° Northeast 313 360 14,800 915 Climbing Washington Center
Mon 11:21:27 AM 36.4622 -78.2597 37° Northeast 313 360 15,800 1,140 Climbing Washington Center
Mon 11:22:28 AM 36.5264 -78.1975 38° Northeast 301 346 17,100 1,289 Climbing Washington Center
Mon 11:23:28 AM 36.5700 -78.1058 59° Northeast 284 327 18,400 1,160 Climbing Washington Center
Mon 11:24:27 AM 36.5928 -78.0056 74° East 284 327 19,400 958 Climbing Washington Center
Mon 11:25:27 AM 36.6525 -77.9453 39° Northeast 264 304 20,300 793 Climbing Washington Center
Mon 11:26:28 AM 36.7181 -77.8981 30° Northeast 264 304 21,000 344 Climbing Washington Center
Mon 11:27:29 AM 36.7878 -77.8483 30° Northeast 275 316 21,000  Level Washington Center
Mon 11:28:29 AM 36.8642 -77.7908 31° Northeast 299 344 21,000  Level Washington Center
Mon 11:29:27 AM 36.9422 -77.7358 29° Northeast 305 351 21,000  Level Washington Center
Mon 11:30:28 AM 37.0225 -77.6783 30° Northeast 317 365 21,000  Level Washington Center
Mon 11:31:29 AM 37.0986 -77.6178 32° Northeast 317 365 21,000  Level Washington Center
Mon 11:32:29 AM 37.1767 -77.5625 29° Northeast 317 365 21,000  Level Washington Center
Mon 11:33:28 AM 37.2550 -77.5044 31° Northeast 317 365 21,000  Level Washington Center
Mon 11:34:29 AM 37.3331 -77.4464 31° Northeast 317 365 21,000  Level Washington Center
Mon 11:35:29 AM 37.4111 -77.3881 31° Northeast 317 365 21,000  Level Washington Center
Mon 11:36:27 AM 37.4892 -77.3297 31° Northeast 317 365 21,000  Level Washington Center
Mon 11:37:27 AM 37.5631 -77.2608 36° Northeast 322 371 21,000  Level Washington Center
Mon 11:38:28 AM 37.6308 -77.1886 40° Northeast 322 371 21,000  Level Washington Center
Mon 11:39:28 AM 37.7025 -77.1167 38° Northeast 322 371 21,000 -198 Level Washington Center
Mon 11:40:29 AM 37.7722 -77.0472 38° Northeast 322 371 20,600 -756 Descending Washington Center
Mon 11:41:27 AM 37.8419 -76.9750 39° Northeast 322 371 19,500 -1,119 Descending Washington Center
Mon 11:42:27 AM 37.9136 -76.9025 39° Northeast 322 371 18,400 -1,041 Descending Washington Center
Mon 11:43:28 AM 37.9792 -76.8325 40° Northeast 322 371 17,400 -1,033 Descending Washington Center
Mon 11:44:29 AM 38.0383 -76.7519 47° Northeast 311 358 16,300 -1,091 Descending Washington Center
Mon 11:45:29 AM 38.0933 -76.6708 49° Northeast 306 352 15,200 -661 Descending Washington Center
Mon 11:46:27 AM 38.1525 -76.5900 47° Northeast 301 346 15,000 -102 Descending Washington Center
Mon 11:47:27 AM 38.2094 -76.5086 48° Northeast 301 346 15,000  Level Washington Center
Mon 11:48:28 AM 38.2661 -76.4247 49° Northeast 306 352 15,000  Level Washington Center
Mon 11:49:27 AM 38.3311 -76.3858 25° Northeast 298 343 15,000  Level Washington Center
Mon 11:50:28 AM 38.4125 -76.3628 13° North 283 326 15,000  Level Washington Center
Mon 11:51:28 AM 38.4919 -76.3425 11° North 283 326 15,000 -595 Level Washington Center
Mon 11:52:29 AM 38.5692 -76.3167 15° North 283 326 13,800 -992 Descending Washington Center
Mon 11:53:29 AM 38.6486 -76.2933 13° North 283 326 13,000 -407 Descending Washington Center
Mon 11:54:27 AM 38.7217 -76.2647 17° North 277 319 13,000  Level Washington Center
Mon 11:55:27 AM 38.7950 -76.2256 23° Northeast 277 319 13,000  Level Washington Center
Mon 11:56:28 AM 38.8661 -76.1836 25° Northeast 277 319 13,000 -50 Level Washington Center
Mon 11:57:28 AM 38.9497 -76.1361 24° Northeast 285 328 12,900 -149 Descending Washington Center
Mon 11:58:29 AM 39.0186 -76.0967 24° Northeast 285 328 12,700 -595 Descending Washington Center
Mon 11:59:29 AM 39.0897 -76.0597 22° Northeast 274 315 11,700 -915 Descending Washington Center
Mon 12:00:27 PM 39.1586 -76.0200 24° Northeast 274 315 10,900 -403 Descending Washington Center
Mon 12:01:28 PM 39.2275 -75.9800 24° Northeast 274 315 10,900 30 Level Washington Center
Mon 12:03:50 PM 39.4000 -75.8833 23° Northeast 269 310 11,000 29 Climbing Philadelphia TRACON
Mon 12:04:56 PM 39.4667 -75.8500 21° North 270 311 11,000  Level Philadelphia TRACON
Mon 12:05:44 PM 39.5167 -75.8000 38° Northeast 274 315 11,000  Level Philadelphia TRACON
Mon 12:06:50 PM 39.5833 -75.7333 38° Northeast 274 315 11,000  Level Philadelphia TRACON
Mon 12:07:50 PM 39.6333 -75.6667 46° Northeast 273 314 11,000  Level Philadelphia TRACON
Mon 12:09:02 PM 39.7000 -75.5667 49° Northeast 290 334 11,000  Level Philadelphia TRACON
Mon 12:10:02 PM 39.7167 -75.4667 78° East 291 335 11,000  Level Philadelphia TRACON
Mon 12:11:02 PM 39.7500 -75.3667 67° East 288 331 11,000  Level Philadelphia TRACON
Mon 12:11:56 PM 39.7667 -75.2833 75° East 293 337 11,000 -500 Level Philadelphia TRACON
Mon 12:13:02 PM 39.8000 -75.1667 70° East 291 335 10,000 -476 Descending Philadelphia TRACON
Mon 12:14:02 PM 39.8333 -75.0833 62° Northeast 287 330 10,000 -48 Level Philadelphia TRACON
Mon 12:15:08 PM 39.8667 -74.9667 70° East 266 306 9,900 -500 Descending Philadelphia TRACON
Mon 12:15:50 PM 39.9000 -74.9333 37° Northeast 220 253 9,100 -1,158 Descending Philadelphia TRACON
Mon 12:17:02 PM 39.9500 -74.8667 46° Northeast 228 262 7,700 -1,062 Descending Philadelphia TRACON
Mon 12:17:43 PM 39.9833 -74.8167 49° Northeast 221 254 7,100 -416 Descending New York TRACON
Mon 12:18:43 PM 40.0167 -74.7667 49° Northeast 227 261 7,000 -50 Descending New York TRACON
Mon 12:19:43 PM 40.0667 -74.7000 46° Northeast 220 253 7,000  Level New York TRACON
Mon 12:20:43 PM 40.1000 -74.6500 49° Northeast 219 252 7,000  Level New York TRACON
Mon 12:21:43 PM 40.1333 -74.5833 57° Northeast 217 250 7,000  Level New York TRACON
Mon 12:22:37 PM 40.1833 -74.5333 37° Northeast 220 253 7,000 -50 Level New York TRACON
Mon 12:23:43 PM 40.2333 -74.5000 27° Northeast 217 250 6,900 -524 Descending New York TRACON
Mon 12:24:43 PM 40.2833 -74.4500 37° Northeast 201 231 5,900 -1,000 Descending New York TRACON
Mon 12:25:37 PM 40.3333 -74.4167 27° Northeast 208 239 5,000 -1,050 Descending New York TRACON
Mon 12:26:43 PM 40.3833 -74.3833 27° Northeast 218 251 3,800 -905 Descending New York TRACON
Mon 12:27:43 PM 40.4333 -74.3333 37° Northeast 178 205 3,100 -400 Descending New York TRACON
Mon 12:28:43 PM 40.4667 -74.3000 37° Northeast 169 194 3,000 -50 Descending New York TRACON
Mon 12:29:43 PM 40.5167 -74.2833 14° North 163 188 3,000  Level New York TRACON
Mon 12:30:43 PM 40.5500 -74.2500 37° Northeast 161 185 3,000 -450 Level New York TRACON
Mon 12:31:43 PM 40.5833 -74.2333 21° North 156 180 2,100 -857 Descending New York TRACON
Mon 12:32:49 PM 40.6333 -74.2000 27° Northeast 143 165 1,200 -800 Descending New York TRACON
Mon 12:33:43 PM 40.6667 -74.1833 21° North 123 142 500 -778 Descending New York TRACON

Login

Don't have an account? Register now (free) for customized features, flight alerts, and more!